Time;durP1;ratioP1;P1;durP2;ratioP2;P2;SDS_P1;SDS_P2;PMS_P1;PMS_P2;Temp;Humidity;BMP_temperature;BMP_pressure;BME280_temperature;BME280_humidity;BME280_pressure;Samples;Min_cycle;Max_cycle;Signal;HPM_P1;HPM_P2
2022/05/25 00:00:04;;;;;;;;;;;13.60;92.40;;;;;;5075884;28;20356;-71
2022/05/25 00:02:29;;;;;;;;;;;13.70;92.70;;;;;;5075634;28;19919;-71
2022/05/25 00:04:55;;;;;;;;;;;13.60;92.80;;;;;;5094380;28;20364;-72
2022/05/25 00:07:21;;;;;;;;;;;13.70;92.80;;;;;;5094035;28;19912;-71
2022/05/25 00:09:47;;;;;;;;;;;13.70;92.80;;;;;;5093903;28;19912;-71
2022/05/25 00:12:13;;;;;;;;;;;13.60;92.70;;;;;;5093898;28;19951;-71
2022/05/25 00:14:38;;;;;;;;;;;13.50;92.80;;;;;;5094206;28;19934;-71
2022/05/25 00:17:04;;;;;;;;;;;13.50;93.70;;;;;;5093925;28;20222;-71
2022/05/25 00:22:14;;;;;;;;;;;13.40;93.60;;;;;;5093997;28;20286;-71
2022/05/25 00:24:40;;;;;;;;;;;13.40;92.90;;;;;;5093823;28;19924;-71
2022/05/25 00:27:05;;;;;;;;;;;13.40;93.50;;;;;;5093645;28;20306;-71
2022/05/25 00:29:31;;;;;;;;;;;13.40;94.40;;;;;;5075717;28;19924;-71
2022/05/25 00:31:57;;;;;;;;;;;13.30;94.30;;;;;;5093616;28;20371;-72
2022/05/25 00:34:22;;;;;;;;;;;13.40;94.10;;;;;;5093818;28;20178;-73
2022/05/25 00:36:48;;;;;;;;;;;13.30;94.30;;;;;;5093545;28;20360;-72
2022/05/25 00:39:13;;;;;;;;;;;13.30;94.50;;;;;;5093837;28;19916;-71
2022/05/25 00:41:39;;;;;;;;;;;13.30;94.60;;;;;;5093249;28;20387;-72
2022/05/25 00:44:05;;;;;;;;;;;13.30;95.10;;;;;;5074976;28;20360;-72
2022/05/25 00:46:32;;;;;;;;;;;13.30;95.60;;;;;;5093466;28;20372;-73
2022/05/25 00:49:05;;;;;;;;;;;13.30;96.20;;;;;;5093518;28;19919;-75
2022/05/25 00:52:00;;;;;;;;;;;13.20;95.90;;;;;;5074415;28;20328;-72
2022/05/25 00:54:28;;;;;;;;;;;13.20;95.80;;;;;;5074913;28;20308;-71
2022/05/25 00:56:55;;;;;;;;;;;13.30;97.10;;;;;;5093279;28;19908;-71
2022/05/25 00:59:24;;;;;;;;;;;13.20;97.70;;;;;;5074920;28;20029;-71
2022/05/25 01:01:50;;;;;;;;;;;13.10;96.80;;;;;;5092750;28;19912;-72
2022/05/25 01:04:15;;;;;;;;;;;13.30;96.70;;;;;;5093154;28;20087;-71
2022/05/25 01:06:53;;;;;;;;;;;13.20;96.90;;;;;;5074648;28;20081;-71
2022/05/25 01:09:33;;;;;;;;;;;13.20;97.40;;;;;;5093071;28;20314;-71
2022/05/25 01:11:59;;;;;;;;;;;13.20;97.10;;;;;;5093175;28;20427;-72
2022/05/25 01:14:24;;;;;;;;;;;13.20;96.70;;;;;;5074752;28;19999;-71
2022/05/25 01:16:53;;;;;;;;;;;13.20;98.10;;;;;;5092675;28;19934;-72
2022/05/25 01:19:34;;;;;;;;;;;13.20;98.30;;;;;;5093077;28;19962;-71
2022/05/25 01:22:10;;;;;;;;;;;13.20;99.10;;;;;;5092387;28;19916;-73
2022/05/25 01:24:51;;;;;;;;;;;13.10;99.10;;;;;;5074335;28;19951;-72
2022/05/25 01:27:19;;;;;;;;;;;13.20;97.90;;;;;;5092461;28;20363;-71
2022/05/25 01:29:53;;;;;;;;;;;13.30;98.40;;;;;;5092718;28;20360;-71
2022/05/25 01:32:27;;;;;;;;;;;13.30;97.90;;;;;;5092353;28;19948;-73
2022/05/25 01:35:00;;;;;;;;;;;13.30;97.60;;;;;;5092891;28;20265;-70
2022/05/25 01:37:46;;;;;;;;;;;13.40;97.70;;;;;;5074163;28;19990;-70
2022/05/25 01:40:20;;;;;;;;;;;13.40;97.60;;;;;;5090619;28;20376;-70
2022/05/25 01:42:55;;;;;;;;;;;13.40;97.90;;;;;;5073961;28;19908;-70
2022/05/25 01:45:22;;;;;;;;;;;13.40;99.40;;;;;;5092716;28;20010;-70
2022/05/25 01:47:49;;;;;;;;;;;13.40;96.50;;;;;;5092149;28;20281;-70
2022/05/25 01:50:17;;;;;;;;;;;13.50;96.80;;;;;;5090639;28;20051;-73
2022/05/25 01:52:44;;;;;;;;;;;13.50;95.90;;;;;;5092064;28;20007;-71
2022/05/25 01:55:15;;;;;;;;;;;13.50;96.00;;;;;;5092402;28;19963;-72
2022/05/25 01:57:44;;;;;;;;;;;13.50;99.90;;;;;;5092019;28;19908;-70
2022/05/25 02:00:10;;;;;;;;;;;13.40;99.90;;;;;;5092101;28;19920;-71
2022/05/25 02:05:21;;;;;;;;;;;13.20;99.90;;;;;;5091633;28;19923;-70
2022/05/25 02:07:55;;;;;;;;;;;13.20;99.90;;;;;;5091965;28;19952;-71
2022/05/25 02:10:39;;;;;;;;;;;13.20;99.70;;;;;;5092145;28;19916;-71
2022/05/25 02:13:12;;;;;;;;;;;13.20;99.90;;;;;;5091778;28;19908;-71
2022/05/25 02:16:04;;;;;;;;;;;13.20;99.90;;;;;;5073734;28;19916;-71
2022/05/25 02:18:30;;;;;;;;;;;13.10;99.90;;;;;;5086187;28;19915;-71
2022/05/25 02:21:14;;;;;;;;;;;13.10;99.90;;;;;;5091654;28;19912;-71
2022/05/25 02:23:45;;;;;;;;;;;13.10;99.90;;;;;;5091523;28;20260;-72
2022/05/25 02:26:31;;;;;;;;;;;13.10;99.90;;;;;;5091486;28;19912;-71
2022/05/25 02:29:16;;;;;;;;;;;13.10;99.90;;;;;;5073230;28;19935;-71
2022/05/25 02:31:44;;;;;;;;;;;13.10;99.90;;;;;;5073304;28;20007;-71
2022/05/25 02:34:11;;;;;;;;;;;13.10;99.90;;;;;;5091397;28;19912;-71
2022/05/25 02:36:38;;;;;;;;;;;13.10;99.90;;;;;;5073188;28;19939;-72
2022/05/25 02:39:07;;;;;;;;;;;13.10;99.90;;;;;;5091455;28;20332;-71
2022/05/25 02:41:35;;;;;;;;;;;13.10;99.90;;;;;;5091262;28;20270;-71
2022/05/25 02:44:01;;;;;;;;;;;13.10;99.90;;;;;;5091476;28;19912;-71
2022/05/25 02:46:26;;;;;;;;;;;13.10;99.90;;;;;;5091437;28;20283;-71
2022/05/25 02:48:52;;;;;;;;;;;13.00;99.90;;;;;;5091348;28;20011;-71
2022/05/25 02:51:18;;;;;;;;;;;13.10;99.90;;;;;;5091262;28;20264;-72
2022/05/25 02:53:44;;;;;;;;;;;13.10;99.90;;;;;;5091286;28;20011;-71
2022/05/25 02:56:10;;;;;;;;;;;13.10;99.90;;;;;;5091498;28;19948;-71
2022/05/25 02:58:35;;;;;;;;;;;13.20;99.90;;;;;;5091173;28;19912;-72
2022/05/25 03:01:03;;;;;;;;;;;13.20;99.80;;;;;;5091073;28;20383;-70
2022/05/25 03:03:28;;;;;;;;;;;13.30;99.80;;;;;;5091113;28;20375;-72
2022/05/25 03:05:54;;;;;;;;;;;13.20;99.90;;;;;;5091130;28;19912;-71
2022/05/25 03:08:19;;;;;;;;;;;13.30;99.90;;;;;;5072772;28;19908;-70
2022/05/25 03:10:45;;;;;;;;;;;13.30;98.70;;;;;;5072902;28;20002;-70
2022/05/25 03:13:10;;;;;;;;;;;13.40;99.10;;;;;;5072919;28;19929;-71
2022/05/25 03:15:36;;;;;;;;;;;13.40;99.30;;;;;;5095407;28;19927;-71
2022/05/25 03:18:02;;;;;;;;;;;13.40;99.60;;;;;;5095155;28;19920;-72
2022/05/25 03:20:28;;;;;;;;;;;13.40;99.60;;;;;;5076713;28;20054;-71
2022/05/25 03:22:54;;;;;;;;;;;13.50;99.60;;;;;;5076594;28;19912;-71
2022/05/25 03:25:20;;;;;;;;;;;13.50;99.50;;;;;;5095182;28;20302;-71
2022/05/25 03:27:45;;;;;;;;;;;13.60;99.40;;;;;;5094878;28;20007;-72
2022/05/25 03:30:13;;;;;;;;;;;13.70;99.30;;;;;;5095118;28;20011;-71
2022/05/25 03:32:38;;;;;;;;;;;13.70;99.60;;;;;;5094798;28;19912;-71
2022/05/25 03:35:04;;;;;;;;;;;13.70;98.00;;;;;;5076501;28;19941;-72
2022/05/25 03:37:29;;;;;;;;;;;13.80;98.50;;;;;;5076531;28;19954;-72
2022/05/25 03:39:55;;;;;;;;;;;13.90;98.40;;;;;;5094868;28;20337;-71
2022/05/25 03:42:22;;;;;;;;;;;13.90;98.60;;;;;;5094576;28;19908;-73
2022/05/25 03:44:48;;;;;;;;;;;14.00;98.90;;;;;;5094826;28;20019;-73
2022/05/25 03:47:14;;;;;;;;;;;14.00;98.60;;;;;;5076345;28;19908;-72
2022/05/25 03:49:39;;;;;;;;;;;14.10;98.20;;;;;;5094734;28;19922;-72
2022/05/25 03:52:05;;;;;;;;;;;14.20;97.50;;;;;;5094627;28;19915;-72
2022/05/25 03:54:31;;;;;;;;;;;14.30;96.90;;;;;;5094481;28;19969;-72
2022/05/25 03:56:57;;;;;;;;;;;14.40;96.30;;;;;;5094363;28;19908;-71
2022/05/25 03:59:23;;;;;;;;;;;14.50;95.00;;;;;;5094398;28;19920;-72
2022/05/25 04:01:48;;;;;;;;;;;14.60;94.70;;;;;;5094192;28;20291;-71
2022/05/25 04:04:14;;;;;;;;;;;14.70;94.50;;;;;;5094410;28;19927;-71
2022/05/25 04:06:39;;;;;;;;;;;14.80;94.50;;;;;;5094220;28;19909;-71
2022/05/25 04:09:05;;;;;;;;;;;14.90;92.60;;;;;;5076095;28;19981;-73
2022/05/25 04:11:31;;;;;;;;;;;15.00;92.10;;;;;;5093798;28;19915;-71
2022/05/25 04:13:57;;;;;;;;;;;15.10;91.40;;;;;;5094219;28;20286;-72
2022/05/25 04:16:23;;;;;;;;;;;15.30;91.20;;;;;;5093895;28;19908;-71
2022/05/25 04:18:48;;;;;;;;;;;15.30;90.70;;;;;;5094120;28;19926;-72
2022/05/25 04:21:14;;;;;;;;;;;15.40;90.40;;;;;;5093587;28;19951;-71
2022/05/25 04:23:39;;;;;;;;;;;15.60;90.00;;;;;;5093789;28;20367;-71
2022/05/25 04:26:05;;;;;;;;;;;15.60;88.90;;;;;;5092551;28;19912;-72
2022/05/25 04:28:31;;;;;;;;;;;15.70;88.60;;;;;;5075553;28;20284;-72
2022/05/25 04:30:56;;;;;;;;;;;15.70;88.10;;;;;;5093585;28;19908;-72
2022/05/25 04:33:22;;;;;;;;;;;15.90;87.60;;;;;;5093663;28;20382;-71
2022/05/25 04:35:47;;;;;;;;;;;15.90;87.60;;;;;;5093531;28;19931;-72
2022/05/25 04:38:14;;;;;;;;;;;16.00;86.80;;;;;;5093645;28;20395;-71
2022/05/25 04:40:43;;;;;;;;;;;16.10;85.60;;;;;;5075261;28;20023;-72
2022/05/25 04:43:12;;;;;;;;;;;16.20;85.60;;;;;;5093911;28;20386;-72
2022/05/25 04:45:38;;;;;;;;;;;16.30;85.50;;;;;;5093305;28;20568;-71
2022/05/25 04:48:04;;;;;;;;;;;16.40;85.50;;;;;;5075197;28;20186;-72
2022/05/25 04:50:34;;;;;;;;;;;16.40;85.30;;;;;;5093713;28;19924;-72
2022/05/25 04:53:00;;;;;;;;;;;16.50;85.00;;;;;;5093643;28;19908;-72
2022/05/25 04:58:21;;;;;;;;;;;16.60;83.70;;;;;;5093645;28;19918;-72
2022/05/25 05:00:47;;;;;;;;;;;16.80;82.70;;;;;;5092927;28;19920;-71
2022/05/25 05:03:12;;;;;;;;;;;16.90;82.50;;;;;;5074986;28;19919;-71
2022/05/25 05:05:38;;;;;;;;;;;17.00;81.80;;;;;;5093249;28;20007;-72
2022/05/25 05:08:04;;;;;;;;;;;17.10;79.70;;;;;;5074736;28;20390;-72
2022/05/25 05:10:30;;;;;;;;;;;17.20;80.00;;;;;;5074790;28;19966;-70
2022/05/25 05:12:55;;;;;;;;;;;17.30;79.10;;;;;;5092894;28;20262;-71
2022/05/25 05:15:22;;;;;;;;;;;17.40;79.30;;;;;;5092476;28;19924;-71
2022/05/25 05:17:47;;;;;;;;;;;17.50;78.30;;;;;;5074677;28;20309;-70
2022/05/25 05:20:13;;;;;;;;;;;17.60;77.90;;;;;;5093077;28;20026;-71
2022/05/25 05:22:38;;;;;;;;;;;17.60;77.30;;;;;;5092795;28;19919;-72
2022/05/25 05:25:04;;;;;;;;;;;17.70;77.20;;;;;;5092390;28;20325;-72
2022/05/25 05:27:30;;;;;;;;;;;17.80;76.60;;;;;;5092424;28;19912;-72
2022/05/25 05:29:58;;;;;;;;;;;17.80;76.80;;;;;;5092950;28;19923;-72
2022/05/25 05:32:25;;;;;;;;;;;18.00;76.10;;;;;;5092309;28;19915;-71
2022/05/25 05:34:51;;;;;;;;;;;18.20;76.20;;;;;;5092669;28;19924;-72
2022/05/25 05:37:23;;;;;;;;;;;18.30;74.30;;;;;;5092129;28;20267;-72
2022/05/25 05:39:50;;;;;;;;;;;18.30;74.60;;;;;;5092517;28;20014;-72
2022/05/25 05:42:17;;;;;;;;;;;18.40;74.40;;;;;;5092071;28;20003;-73
2022/05/25 05:45:03;;;;;;;;;;;18.50;73.80;;;;;;5092349;28;19912;-72
2022/05/25 05:47:30;;;;;;;;;;;18.50;74.70;;;;;;5091293;28;19935;-71
2022/05/25 05:49:56;;;;;;;;;;;18.60;74.10;;;;;;5092672;28;19916;-72
2022/05/25 05:52:22;;;;;;;;;;;18.60;74.20;;;;;;5092137;28;19916;-73
2022/05/25 05:54:47;;;;;;;;;;;18.80;74.00;;;;;;5092355;28;20406;-72
2022/05/25 05:57:13;;;;;;;;;;;18.80;72.70;;;;;;5092224;28;19958;-72
2022/05/25 05:59:38;;;;;;;;;;;18.90;73.50;;;;;;5092439;28;20376;-72
2022/05/25 06:02:04;;;;;;;;;;;19.00;73.20;;;;;;5091792;28;20272;-73
2022/05/25 06:04:30;;;;;;;;;;;19.10;71.80;;;;;;5073798;28;20248;-73
2022/05/25 06:06:55;;;;;;;;;;;19.10;71.70;;;;;;5073628;28;19920;-72
2022/05/25 06:09:21;;;;;;;;;;;19.10;71.10;;;;;;5091809;28;20566;-71
2022/05/25 06:11:47;;;;;;;;;;;19.20;72.50;;;;;;5073391;28;19957;-72
2022/05/25 06:14:12;;;;;;;;;;;19.40;72.00;;;;;;5073641;28;19927;-71
2022/05/25 06:19:29;;;;;;;;;;;19.60;71.50;;;;;;5092143;28;19966;-71
2022/05/25 06:21:56;;;;;;;;;;;19.70;71.60;;;;;;5091462;28;19920;-72
2022/05/25 06:24:22;;;;;;;;;;;19.80;70.90;;;;;;5091261;28;19928;-71
2022/05/25 06:26:47;;;;;;;;;;;19.90;71.80;;;;;;5091657;28;19961;-71
2022/05/25 06:29:16;;;;;;;;;;;20.00;72.50;;;;;;5073250;28;19965;-71
2022/05/25 06:31:42;;;;;;;;;;;20.10;70.20;;;;;;5091135;28;19912;-71
2022/05/25 06:34:07;;;;;;;;;;;20.10;71.80;;;;;;5073096;28;19924;-72
2022/05/25 06:36:33;;;;;;;;;;;20.20;71.80;;;;;;5091712;28;19908;-72
2022/05/25 06:38:58;;;;;;;;;;;20.30;69.70;;;;;;5073307;28;19923;-72
2022/05/25 06:41:25;;;;;;;;;;;20.30;68.60;;;;;;5091205;28;20003;-71
2022/05/25 06:43:50;;;;;;;;;;;20.30;67.80;;;;;;5073216;28;20009;-70
2022/05/25 06:46:19;;;;;;;;;;;20.40;68.50;;;;;;5091362;28;19978;-71
2022/05/25 06:48:45;;;;;;;;;;;20.40;68.10;;;;;;5093680;28;20008;-70
2022/05/25 06:51:18;;;;;;;;;;;20.50;67.90;;;;;;5097979;28;19965;-71
2022/05/25 06:53:44;;;;;;;;;;;20.50;67.70;;;;;;5079696;28;20363;-70
2022/05/25 06:56:09;;;;;;;;;;;20.60;69.30;;;;;;5098178;28;19995;-74
2022/05/25 06:58:35;;;;;;;;;;;20.80;68.70;;;;;;5079583;28;19912;-72
2022/05/25 07:01:01;;;;;;;;;;;21.00;67.90;;;;;;5097802;28;19916;-73
2022/05/25 07:03:26;;;;;;;;;;;21.20;67.40;;;;;;5097768;28;19928;-73
2022/05/25 07:05:52;;;;;;;;;;;21.30;66.90;;;;;;5098197;28;19957;-72
2022/05/25 07:08:17;;;;;;;;;;;21.30;65.90;;;;;;5097961;28;20010;-72
2022/05/25 07:10:45;;;;;;;;;;;21.40;65.80;;;;;;5097945;28;20317;-72
2022/05/25 07:13:11;;;;;;;;;;;21.50;67.10;;;;;;5097939;28;20355;-72
2022/05/25 07:15:37;;;;;;;;;;;21.70;67.10;;;;;;5098309;28;19967;-72
2022/05/25 07:18:02;;;;;;;;;;;21.80;67.20;;;;;;5097903;28;19935;-72
2022/05/25 07:20:28;;;;;;;;;;;22.00;67.30;;;;;;5098099;28;19976;-72
2022/05/25 07:22:54;;;;;;;;;;;21.90;64.80;;;;;;5097784;28;19908;-71
2022/05/25 07:25:19;;;;;;;;;;;22.00;65.50;;;;;;5098196;28;20167;-71
2022/05/25 07:27:45;;;;;;;;;;;22.10;65.20;;;;;;5079570;28;20220;-72
2022/05/25 07:30:10;;;;;;;;;;;22.20;65.30;;;;;;5079610;28;19951;-71
2022/05/25 07:32:36;;;;;;;;;;;22.30;64.80;;;;;;5097788;28;20304;-71
2022/05/25 07:35:04;;;;;;;;;;;22.40;63.10;;;;;;5097962;28;19920;-71
2022/05/25 07:37:33;;;;;;;;;;;22.40;62.70;;;;;;5097541;28;19923;-71
2022/05/25 07:40:08;;;;;;;;;;;22.20;62.00;;;;;;5079377;28;20019;-72
2022/05/25 07:42:34;;;;;;;;;;;21.80;62.30;;;;;;5097473;28;19908;-72
2022/05/25 07:45:00;;;;;;;;;;;21.50;62.70;;;;;;5098067;28;19939;-71
2022/05/25 07:47:27;;;;;;;;;;;21.40;63.80;;;;;;5097657;28;19947;-71
2022/05/25 07:49:53;;;;;;;;;;;21.60;63.70;;;;;;5097460;28;20257;-71
2022/05/25 07:52:19;;;;;;;;;;;21.80;62.50;;;;;;5097486;28;19915;-71
2022/05/25 07:54:45;;;;;;;;;;;22.10;62.20;;;;;;5097639;28;19916;-71
2022/05/25 07:57:11;;;;;;;;;;;22.20;62.10;;;;;;5097857;28;19934;-71
2022/05/25 07:59:36;;;;;;;;;;;22.50;62.10;;;;;;5097107;28;20348;-71
2022/05/25 08:07:38;;;;;;;;;;;23.00;59.80;;;;;;5094375;28;19959;-71
2022/05/25 08:10:06;;;;;;;;;;;22.80;59.80;;;;;;5093903;28;20391;-70
2022/05/25 08:12:34;;;;;;;;;;;22.60;59.90;;;;;;5093954;28;19968;-70
2022/05/25 08:15:00;;;;;;;;;;;22.60;60.60;;;;;;5094177;28;20003;-70
2022/05/25 08:17:26;;;;;;;;;;;22.70;60.40;;;;;;5075754;28;19952;-71
2022/05/25 08:19:51;;;;;;;;;;;22.80;61.10;;;;;;5093825;28;19920;-71
2022/05/25 08:22:17;;;;;;;;;;;23.00;61.60;;;;;;5093879;28;19912;-72
2022/05/25 08:24:43;;;;;;;;;;;23.30;61.00;;;;;;5075510;28;20399;-72
2022/05/25 08:27:08;;;;;;;;;;;23.50;59.20;;;;;;5075711;28;19915;-72
2022/05/25 08:29:34;;;;;;;;;;;23.80;59.30;;;;;;5094163;28;19916;-72
2022/05/25 08:31:59;;;;;;;;;;;24.00;59.20;;;;;;5093758;28;20353;-73
2022/05/25 08:34:26;;;;;;;;;;;24.30;58.90;;;;;;5093687;28;20291;-71
2022/05/25 08:36:52;;;;;;;;;;;24.30;57.60;;;;;;5075530;28;20355;-71
2022/05/25 08:39:17;;;;;;;;;;;24.20;58.60;;;;;;5093851;28;19920;-73
2022/05/25 08:41:44;;;;;;;;;;;24.20;59.20;;;;;;5093864;28;20015;-71
2022/05/25 08:44:10;;;;;;;;;;;24.40;59.40;;;;;;5093685;28;19953;-72
2022/05/25 08:46:37;;;;;;;;;;;24.60;58.00;;;;;;5093879;28;20408;-71
2022/05/25 08:49:03;;;;;;;;;;;24.70;58.30;;;;;;5093580;28;19919;-71
2022/05/25 08:51:29;;;;;;;;;;;25.00;57.90;;;;;;5093176;28;20359;-72
2022/05/25 08:53:59;;;;;;;;;;;25.00;57.40;;;;;;5091957;28;19924;-71
2022/05/25 08:56:47;;;;;;;;;;;24.70;57.30;;;;;;5075035;28;19916;-70
2022/05/25 08:59:18;;;;;;;;;;;24.40;57.60;;;;;;5074801;28;19920;-70
2022/05/25 09:01:55;;;;;;;;;;;24.20;57.50;;;;;;5093094;28;20399;-71
2022/05/25 09:04:53;;;;;;;;;;;24.00;56.80;;;;;;5074678;28;19916;-71
2022/05/25 09:07:24;;;;;;;;;;;23.80;57.90;;;;;;5047930;28;19915;-72
2022/05/25 09:09:50;;;;;;;;;;;23.80;57.90;;;;;;5093172;28;19943;-70
2022/05/25 09:12:23;;;;;;;;;;;24.00;57.90;;;;;;5092370;28;19919;-71
2022/05/25 09:15:00;;;;;;;;;;;24.20;58.00;;;;;;5074525;28;20011;-71
2022/05/25 09:17:28;;;;;;;;;;;24.40;57.70;;;;;;5074459;28;19972;-71
2022/05/25 09:19:54;;;;;;;;;;;24.50;58.50;;;;;;5092930;28;19919;-70
2022/05/25 09:22:22;;;;;;;;;;;24.60;57.60;;;;;;5092999;28;20351;-71
2022/05/25 09:24:49;;;;;;;;;;;24.80;57.90;;;;;;5092881;28;19924;-71
2022/05/25 09:27:16;;;;;;;;;;;25.00;57.20;;;;;;5092593;28;19916;-71
2022/05/25 09:29:42;;;;;;;;;;;25.20;56.50;;;;;;5092888;28;20331;-72
2022/05/25 09:32:10;;;;;;;;;;;25.10;56.00;;;;;;5092451;28;19908;-71
2022/05/25 09:34:39;;;;;;;;;;;25.10;55.90;;;;;;5074110;28;19926;-70
2022/05/25 09:37:27;;;;;;;;;;;24.90;56.40;;;;;;5092616;28;19961;-70
2022/05/25 09:39:53;;;;;;;;;;;24.90;56.70;;;;;;5081803;28;19924;-71
2022/05/25 09:42:20;;;;;;;;;;;25.00;56.20;;;;;;5092285;28;19919;-71
2022/05/25 09:44:52;;;;;;;;;;;25.10;55.70;;;;;;5092681;28;19966;-70
2022/05/25 09:47:22;;;;;;;;;;;25.20;55.30;;;;;;5092316;28;19908;-71
2022/05/25 09:49:49;;;;;;;;;;;25.10;54.70;;;;;;5073945;28;19923;-71
2022/05/25 09:52:19;;;;;;;;;;;24.80;55.70;;;;;;5092227;28;19908;-70
2022/05/25 09:55:01;;;;;;;;;;;24.90;56.30;;;;;;5092264;28;20320;-70
2022/05/25 09:57:31;;;;;;;;;;;24.90;55.30;;;;;;5092064;28;19908;-71
2022/05/25 10:00:17;;;;;;;;;;;25.00;56.30;;;;;;5091811;28;19980;-71
2022/05/25 10:02:48;;;;;;;;;;;25.40;56.10;;;;;;5091204;28;19916;-71
2022/05/25 10:05:16;;;;;;;;;;;25.60;55.90;;;;;;5073841;28;19916;-71
2022/05/25 10:07:49;;;;;;;;;;;25.90;56.00;;;;;;5092066;28;20404;-71
2022/05/25 10:10:22;;;;;;;;;;;26.30;55.40;;;;;;5092201;28;20377;-72
2022/05/25 10:12:57;;;;;;;;;;;26.70;54.50;;;;;;5091744;28;19911;-70
2022/05/25 10:15:31;;;;;;;;;;;27.00;53.60;;;;;;5073675;28;19921;-71
2022/05/25 10:17:59;;;;;;;;;;;27.10;54.10;;;;;;5091871;28;19908;-71
2022/05/25 10:20:34;;;;;;;;;;;27.50;54.70;;;;;;5091683;28;20321;-70
2022/05/25 10:23:18;;;;;;;;;;;27.80;54.10;;;;;;5090850;28;19922;-71
2022/05/25 10:25:46;;;;;;;;;;;27.90;53.10;;;;;;5091435;28;19920;-71
2022/05/25 10:28:17;;;;;;;;;;;27.50;53.10;;;;;;5073484;28;19909;-71
2022/05/25 10:37:00;;;;;;;;;;;27.20;53.70;;;;;;5091316;28;20326;-71
2022/05/25 10:39:28;;;;;;;;;;;27.20;53.30;;;;;;5089389;28;19920;-69
2022/05/25 10:42:14;;;;;;;;;;;27.00;52.70;;;;;;5091396;28;20287;-72
2022/05/25 10:44:46;;;;;;;;;;;27.20;52.20;;;;;;5077673;28;20392;-71
2022/05/25 10:47:20;;;;;;;;;;;27.30;52.90;;;;;;5073295;28;19908;-71
2022/05/25 10:49:45;;;;;;;;;;;27.40;52.10;;;;;;5091637;28;20352;-70
2022/05/25 10:52:29;;;;;;;;;;;27.60;52.70;;;;;;5091475;28;19962;-70
2022/05/25 10:54:56;;;;;;;;;;;27.70;52.40;;;;;;5091755;28;19916;-70
2022/05/25 10:57:28;;;;;;;;;;;28.00;52.70;;;;;;5091175;28;19918;-70
2022/05/25 11:00:03;;;;;;;;;;;27.70;51.00;;;;;;5091781;28;19922;-70
2022/05/25 11:02:37;;;;;;;;;;;27.70;51.40;;;;;;5090890;28;20351;-71
2022/05/25 11:05:09;;;;;;;;;;;27.50;51.30;;;;;;5091480;28;19943;-70
2022/05/25 11:07:35;;;;;;;;;;;27.20;51.30;;;;;;5091062;28;19912;-70
2022/05/25 11:10:04;;;;;;;;;;;26.90;51.50;;;;;;5073062;28;19923;-71
2022/05/25 11:12:29;;;;;;;;;;;26.80;51.40;;;;;;5091223;28;19912;-71
2022/05/25 11:14:55;;;;;;;;;;;26.50;51.50;;;;;;5091084;28;19920;-70
2022/05/25 11:17:27;;;;;;;;;;;26.20;51.20;;;;;;5090799;28;19909;-70
2022/05/25 11:19:52;;;;;;;;;;;25.90;51.80;;;;;;5091392;28;20390;-70
2022/05/25 11:22:36;;;;;;;;;;;26.10;52.70;;;;;;5072874;28;19912;-70
2022/05/25 11:25:05;;;;;;;;;;;26.60;52.10;;;;;;5091199;28;19997;-71
2022/05/25 11:27:39;;;;;;;;;;;27.10;51.50;;;;;;5090984;28;19959;-71
2022/05/25 11:30:08;;;;;;;;;;;27.30;50.40;;;;;;5091561;28;20034;-72
2022/05/25 11:32:34;;;;;;;;;;;27.10;50.60;;;;;;5090941;28;19908;-71
2022/05/25 11:35:11;;;;;;;;;;;26.60;50.70;;;;;;5074086;28;19977;-70
2022/05/25 11:37:54;;;;;;;;;;;25.90;51.40;;;;;;5076443;28;19916;-71
2022/05/25 11:40:35;;;;;;;;;;;25.60;51.20;;;;;;5095007;28;20337;-72
2022/05/25 11:43:03;;;;;;;;;;;25.50;51.60;;;;;;5094676;28;19919;-74
2022/05/25 11:45:44;;;;;;;;;;;25.70;51.50;;;;;;5094487;28;20372;-71
2022/05/25 11:48:16;;;;;;;;;;;26.10;50.30;;;;;;5094591;28;19961;-71
2022/05/25 11:50:47;;;;;;;;;;;26.00;50.20;;;;;;5094775;28;20399;-72
2022/05/25 11:53:29;;;;;;;;;;;25.80;50.90;;;;;;5094342;28;19912;-71
2022/05/25 11:56:05;;;;;;;;;;;25.70;51.00;;;;;;5094488;28;19923;-71
2022/05/25 11:58:52;;;;;;;;;;;25.50;51.30;;;;;;5076015;28;19915;-71
2022/05/25 12:01:38;;;;;;;;;;;25.20;51.40;;;;;;5075941;28;19923;-72
2022/05/25 12:04:22;;;;;;;;;;;24.80;51.60;;;;;;5094288;28;20407;-71
2022/05/25 12:07:06;;;;;;;;;;;24.30;52.40;;;;;;5094001;28;19912;-71
2022/05/25 12:09:35;;;;;;;;;;;23.90;53.30;;;;;;5094204;28;19915;-70
2022/05/25 12:12:07;;;;;;;;;;;24.00;53.90;;;;;;5094127;28;19947;-71
2022/05/25 12:14:39;;;;;;;;;;;24.30;53.40;;;;;;5095064;28;19920;-71
2022/05/25 12:17:12;;;;;;;;;;;24.40;53.30;;;;;;5093673;28;19915;-65
2022/05/25 12:19:39;;;;;;;;;;;24.50;53.80;;;;;;5094099;28;19923;-65
2022/05/25 12:22:08;;;;;;;;;;;24.40;53.10;;;;;;5075437;28;19919;-65
2022/05/25 12:24:44;;;;;;;;;;;24.30;53.40;;;;;;5093695;28;19928;-63
2022/05/25 12:27:13;;;;;;;;;;;24.10;53.00;;;;;;5093863;28;19999;-64
2022/05/25 12:29:42;;;;;;;;;;;23.90;53.70;;;;;;5093261;28;19927;-71
2022/05/25 12:32:08;;;;;;;;;;;23.80;53.20;;;;;;5092282;28;20398;-71
2022/05/25 12:34:40;;;;;;;;;;;23.90;53.50;;;;;;5092750;28;19916;-71
2022/05/25 12:37:06;;;;;;;;;;;23.90;53.90;;;;;;5092063;28;19986;-71
2022/05/25 12:39:47;;;;;;;;;;;23.90;53.90;;;;;;5091963;28;19926;-70
2022/05/25 12:42:21;;;;;;;;;;;23.90;53.80;;;;;;5073765;28;19916;-70
2022/05/25 12:50:34;;;;;;;;;;;23.90;53.20;;;;;;5093245;28;19942;-65
2022/05/25 12:53:18;;;;;;;;;;;24.10;53.40;;;;;;5093010;28;20014;-65
2022/05/25 12:55:51;;;;;;;;;;;24.20;53.60;;;;;;5092907;28;19916;-65
2022/05/25 12:58:31;;;;;;;;;;;24.40;53.40;;;;;;5092808;28;20390;-64
2022/05/25 13:01:01;;;;;;;;;;;24.30;52.90;;;;;;5092800;28;20006;-66
2022/05/25 13:03:45;;;;;;;;;;;24.20;53.90;;;;;;5092509;28;19931;-66
2022/05/25 13:06:11;;;;;;;;;;;24.10;53.60;;;;;;5092751;28;19915;-65
2022/05/25 13:08:46;;;;;;;;;;;24.10;52.80;;;;;;5092863;28;19959;-66
2022/05/25 13:11:30;;;;;;;;;;;23.90;52.60;;;;;;5092655;28;19912;-65
2022/05/25 13:13:56;;;;;;;;;;;23.80;53.40;;;;;;5074090;28;20375;-64
2022/05/25 13:16:40;;;;;;;;;;;23.70;53.90;;;;;;5092868;28;20365;-65
2022/05/25 13:19:32;;;;;;;;;;;23.70;53.00;;;;;;5093053;28;20292;-65
2022/05/25 13:22:05;;;;;;;;;;;23.70;52.90;;;;;;5088114;28;19916;-65
2022/05/25 13:24:50;;;;;;;;;;;23.80;53.60;;;;;;5073856;28;19970;-65
2022/05/25 13:27:21;;;;;;;;;;;23.90;53.10;;;;;;5092479;28;20366;-66
2022/05/25 13:30:00;;;;;;;;;;;24.00;52.90;;;;;;5074437;28;19977;-65
2022/05/25 13:32:34;;;;;;;;;;;24.00;52.10;;;;;;5092632;28;20283;-65
2022/05/25 13:35:10;;;;;;;;;;;23.90;52.70;;;;;;5092701;28;20243;-65
2022/05/25 13:37:37;;;;;;;;;;;23.80;52.30;;;;;;5092273;28;20352;-66
2022/05/25 13:40:03;;;;;;;;;;;23.80;53.00;;;;;;5092328;28;19969;-65
2022/05/25 13:42:28;;;;;;;;;;;23.80;52.50;;;;;;5092012;28;20334;-65
2022/05/25 13:44:57;;;;;;;;;;;23.60;52.50;;;;;;5073921;28;20469;-65
2022/05/25 13:47:24;;;;;;;;;;;23.10;52.80;;;;;;5092106;28;19915;-66
2022/05/25 13:49:50;;;;;;;;;;;23.00;52.70;;;;;;5092392;28;19928;-65
2022/05/25 13:52:18;;;;;;;;;;;23.00;53.00;;;;;;5092322;28;19915;-66
2022/05/25 13:54:45;;;;;;;;;;;23.00;53.30;;;;;;5092069;28;19920;-66
2022/05/25 13:57:29;;;;;;;;;;;23.00;52.60;;;;;;5092199;28;19954;-65
2022/05/25 13:59:55;;;;;;;;;;;23.00;52.90;;;;;;5092001;28;19920;-66
2022/05/25 14:02:23;;;;;;;;;;;23.10;53.10;;;;;;5091622;28;19919;-65
2022/05/25 14:04:48;;;;;;;;;;;23.20;53.00;;;;;;5092121;28;19916;-65
2022/05/25 14:07:26;;;;;;;;;;;22.90;52.10;;;;;;5092060;28;19912;-65
2022/05/25 14:12:37;;;;;;;;;;;23.30;52.50;;;;;;5092005;28;20377;-65
2022/05/25 14:15:03;;;;;;;;;;;23.30;52.40;;;;;;5091769;28;20175;-65
2022/05/25 14:17:30;;;;;;;;;;;23.30;52.40;;;;;;5091865;28;20253;-65
2022/05/25 14:19:58;;;;;;;;;;;23.30;52.30;;;;;;5091063;28;19920;-65
2022/05/25 14:22:25;;;;;;;;;;;23.30;52.40;;;;;;5091306;28;19912;-65
2022/05/25 14:24:54;;;;;;;;;;;23.20;52.50;;;;;;5091640;28;19924;-64
2022/05/25 14:27:32;;;;;;;;;;;23.20;52.50;;;;;;5091172;28;19915;-64
2022/05/25 14:30:05;;;;;;;;;;;23.10;53.00;;;;;;5091708;28;19966;-65
2022/05/25 14:32:31;;;;;;;;;;;23.10;53.10;;;;;;5091225;28;19951;-64
2022/05/25 14:34:59;;;;;;;;;;;23.00;53.10;;;;;;5091672;28;19927;-65
2022/05/25 14:37:33;;;;;;;;;;;23.00;53.40;;;;;;5091042;28;19915;-65
2022/05/25 14:40:00;;;;;;;;;;;23.00;53.50;;;;;;5091523;28;19948;-64
2022/05/25 14:42:27;;;;;;;;;;;23.00;53.80;;;;;;5090859;28;19912;-64
2022/05/25 14:44:56;;;;;;;;;;;23.00;53.80;;;;;;5091483;28;20364;-64
2022/05/25 14:47:30;;;;;;;;;;;23.00;54.30;;;;;;5091192;28;19909;-65
2022/05/25 14:50:03;;;;;;;;;;;22.90;53.90;;;;;;5072908;28;19917;-64
2022/05/25 14:52:29;;;;;;;;;;;22.90;53.60;;;;;;5091439;28;19908;-64
2022/05/25 14:55:14;;;;;;;;;;;22.80;53.70;;;;;;5091347;28;19927;-64
2022/05/25 14:57:40;;;;;;;;;;;22.80;53.90;;;;;;5091358;28;19998;-64
2022/05/25 15:00:06;;;;;;;;;;;22.90;53.50;;;;;;5091312;28;19920;-65